Easter Airfield

GB-0048 · Scotland, United Kingdom

METAR history GB-0048 · Easter Airfield

Below you see METARs of the last few days. Select a year to browse through older METARs, from the year 2007 onwards.

November 26, 2022

Time Code Weather Temp. Visibility Ceiling Wind METAR/SPECI
19:20
M
13 °C 10 km+ 2,800 ft 100° 100° 8 - 22 kt METAR EGPE 261920Z 10008G22KT 030V160 9999 FEW020 BKN028 13/08 Q1000
18:50
M
13 °C 10 km+ 2,900 ft 180° 180° 7 kt METAR EGPE 261850Z 18007KT 150V230 9999 VCSH FEW020 BKN029 13/08 Q1001
18:20
M
13 °C 10 km+ 2,900 ft 150° 150° 10 kt METAR EGPE 261820Z 15010KT 110V190 9999 VCSH FEW020 BKN029 13/08 Q1001
17:50
V
13 °C 10 km+ 3,100 ft 140° 140° 10 kt METAR EGPE 261750Z 14010KT 9999 VCSH FEW020 BKN031 13/08 Q1002
17:20
V
14 °C 10 km+ 3,100 ft 180° 180° 11 kt METAR EGPE 261720Z 18011KT 150V210 9999 VCSH FEW020 BKN031 14/08 Q1002
16:50
V
13 °C 10 km+ 3,100 ft 160° 160° 8 kt METAR EGPE 261650Z 16008KT 9999 VCSH FEW020 BKN031 13/09 Q1003
16:20
V
13 °C 10 km+ 3,200 ft 170° 170° 10 kt METAR EGPE 261620Z 17010KT 9999 VCSH FEW020 BKN032 13/09 Q1003
15:50
V
13 °C 10 km+ 4,000 ft 170° 170° 14 kt METAR EGPE 261550Z 17014KT 9999 VCSH FEW020 BKN040 13/09 Q1003
15:20
V
13 °C 10 km+ 4,200 ft 170° 170° 13 kt METAR EGPE 261520Z 17013KT 9999 VCSH FEW020 BKN042 13/09 Q1003
14:50
V
13 °C 10 km+ 4,200 ft 180° 180° 10 kt METAR EGPE 261450Z 18010KT 9999 VCSH FEW020 BKN042 13/09 Q1004
14:20
V
13 °C 10 km+ 4,200 ft 180° 180° 11 - 22 kt METAR EGPE 261420Z 18011G22KT 9999 VCSH FEW024 BKN042 13/09 Q1005
13:50
V
13 °C 10 km+ 4,200 ft 190° 190° 14 kt METAR EGPE 261350Z 19014KT 9999 VCSH FEW024 SCT032 BKN042 13/08 Q1005
13:20
V
13 °C 10 km+ - 190° 190° 17 kt METAR EGPE 261320Z 19017KT 9999 SCT032 13/08 Q1005
12:50
V
13 °C 10 km+ - 180° 180° 13 kt METAR EGPE 261250Z 18013KT 9999 SCT032 13/08 Q1006
12:20
V
13 °C 10 km+ - 180° 180° 8 - 18 kt METAR EGPE 261220Z 18008G18KT 150V230 9999 SCT032 13/08 Q1006
11:50
V
12 °C 10 km+ - 180° 180° 11 kt METAR EGPE 261150Z 18011KT 9999 SCT030 12/08 Q1007
11:20
V
12 °C 10 km+ - 170° 170° 9 kt METAR EGPE 261120Z 17009KT 9999 FEW030 12/08 Q1007
10:50
V
12 °C 10 km+ - 160° 160° 6 kt METAR EGPE 261050Z 16006KT 9999 FEW030 12/08 Q1008
10:20
V
12 °C 10 km+ - 180° 180° 5 kt METAR EGPE 261020Z 18005KT 9999 FEW030 12/07 Q1008
09:50
V
12 °C 10 km+ - 190° 190° 9 kt METAR EGPE 260950Z 19009KT 9999 FEW032 12/07 Q1008
09:20
V
11 °C 10 km+ - 210° 210° 8 kt METAR EGPE 260920Z 21008KT 180V250 9999 FEW025 SCT032 11/07 Q1009
08:50
V
10 °C 10 km+ - 230° 230° 4 kt METAR EGPE 260850Z 23004KT 160V290 9999 FEW025 SCT032 10/07 Q1009
08:20
V
9 °C 10 km+ - Var 000° 0 kt METAR EGPE 260820Z 00000KT 9999 SCT035 09/06 Q1009
07:50
V
10 °C 10 km+ 3,800 ft Var Var 1 kt METAR EGPE 260750Z VRB01KT 9999 FEW020 BKN038 10/06 Q1009
07:20
V
9 °C 10 km+ 3,900 ft Var Var 2 kt METAR EGPE 260720Z VRB02KT 9999 FEW020 BKN039 09/06 Q1009
06:50
V
10 °C 10 km+ 4,200 ft Var Var 2 kt METAR EGPE 260650Z VRB02KT 9999 FEW025 BKN042 10/06 Q1010
06:20
V
10 °C 10 km+ - 190° 190° 6 kt METAR EGPE 260620Z 19006KT 9999 FEW035 SCT045 10/06 Q1010
05:50
V
9 °C 10 km+ 4,500 ft 170° 170° 4 kt METAR EGPE 260550Z 17004KT 9999 SCT037 BKN045 09/06 Q1010
05:20
V
9 °C 10 km+ - Var Var 2 kt METAR EGPE 260520Z VRB02KT 9999 FEW045 09/05 Q1010
04:50
V
9 °C 10 km+ - Var 000° 0 kt METAR EGPE 260450Z AUTO 00000KT 9999 NCD 09/05 Q1010
04:20
V
10 °C 10 km+ - 210° 210° 3 kt METAR EGPE 260420Z AUTO 21003KT 170V250 9999 SCT038/// 10/06 Q1010
03:50
V
9 °C 10 km+ 3,500 ft Var Var 1 kt METAR EGPE 260350Z AUTO VRB01KT 9999 BKN035/// BKN044/// 09/05 Q1011
03:20
V
7 °C 10 km+ - 050° 050° 2 kt METAR EGPE 260320Z AUTO 05002KT 9999 NCD 07/05 Q1011
02:50
V
7 °C 10 km+ - Var Var 1 kt METAR EGPE 260250Z AUTO VRB01KT 9999 NCD 07/05 Q1011
02:20
V
6 °C 10 km+ - Var Var 2 kt METAR EGPE 260220Z AUTO VRB02KT 9999 NCD 06/04 Q1010
01:50
V
8 °C 10 km+ - 200° 200° 3 kt METAR EGPE 260150Z AUTO 20003KT 9999 NCD 08/05 Q1010
01:20
V
8 °C 10 km+ - 210° 210° 5 kt METAR EGPE 260120Z AUTO 21005KT 9999 NCD 08/05 Q1010
00:50
V
8 °C 10 km+ - 220° 220° 6 kt METAR EGPE 260050Z AUTO 22006KT 9999 NCD 08/06 Q1011
00:20
V
8 °C 10 km+ - 230° 230° 8 kt METAR EGPE 260020Z AUTO 23008KT 9999 NCD 08/05 Q1011

November 25, 2022

Time Code Weather Temp. Visibility Ceiling Wind METAR/SPECI
23:50
V
7 °C 10 km+ - 230° 230° 8 kt METAR EGPE 252350Z AUTO 23008KT 9999 NCD 07/05 Q1010
23:20
V
8 °C 10 km+ - 210° 210° 12 kt METAR EGPE 252320Z AUTO 21012KT 9999 FEW046/// 08/05 Q1010
22:50
V
7 °C 10 km+ 4,200 ft 230° 230° 8 kt METAR EGPE 252250Z AUTO 23008KT 9999 BKN042/// 07/05 Q1010
22:20
V
8 °C 10 km+ 4,400 ft 220° 220° 11 kt METAR EGPE 252220Z AUTO 22011KT 9999 BKN044/// 08/05 Q1010
21:50
V
8 °C 10 km+ - 220° 220° 12 kt METAR EGPE 252150Z AUTO 22012KT 9999 -RA SCT040/// 08/05 Q1009
21:20
V
8 °C 10 km+ 4,500 ft 190° 190° 8 kt METAR EGPE 252120Z AUTO 19008KT 9999 BKN045/// 08/05 Q1009
20:50
V
8 °C 10 km+ - 210° 210° 6 kt METAR EGPE 252050Z 21006KT 180V260 9999 FEW034 08/05 Q1009
20:20
V
8 °C 10 km+ - 210° 210° 12 kt METAR EGPE 252020Z 21012KT 9999 FEW034 08/05 Q1008
19:50
V
8 °C 10 km+ - 210° 210° 11 kt METAR EGPE 251950Z 21011KT 9999 FEW034 08/05 Q1007
19:20
V
8 °C 10 km+ - 220° 220° 12 kt METAR EGPE 251920Z 22012KT 9999 FEW034 08/05 Q1007
18:50
V
8 °C 10 km+ - 220° 220° 13 kt METAR EGPE 251850Z 22013KT 9999 -RA FEW034 SCT039 08/06 Q1006
18:20
V
9 °C 10 km+ 4,800 ft 220° 220° 16 kt METAR EGPE 251820Z 22016KT 9999 FEW034 SCT042 BKN048 09/06 Q1006
17:50
V
8 °C 10 km+ - 220° 220° 18 kt METAR EGPE 251750Z 22018KT 9999 -RA FEW034 08/06 Q1005
17:20
V
9 °C 10 km+ 4,000 ft 220° 220° 14 kt METAR EGPE 251720Z 22014KT 9999 -RA FEW034 SCT038 BKN040 09/06 Q1005
16:50
V
8 °C 10 km+ - 210° 210° 14 kt METAR EGPE 251650Z 21014KT 9999 FEW034 SCT044 08/05 Q1004
16:20
V
8 °C 10 km+ - 210° 210° 11 kt METAR EGPE 251620Z 21011KT 9999 FEW034 08/04 Q1003
15:50
V
7 °C 10 km+ - 210° 210° 8 kt METAR EGPE 251550Z 21008KT 9999 FEW033 07/04 Q1003
15:20
V
8 °C 10 km+ - 220° 220° 12 kt METAR EGPE 251520Z 22012KT 9999 FEW030 08/05 Q1002
14:50
V
9 °C 10 km+ - 220° 220° 13 kt METAR EGPE 251450Z 22013KT 9999 FEW028 09/05 Q1001
14:20
V
9 °C 10 km+ - 220° 220° 14 kt METAR EGPE 251420Z 22014KT 9999 FEW026 09/05 Q1000
13:50
V
9 °C 10 km+ - 230° 230° 14 - 24 kt METAR EGPE 251350Z 23014G24KT 9999 FEW024 09/05 Q1000
13:20
V
9 °C 10 km+ - 230° 230° 15 kt METAR EGPE 251320Z 23015KT 9999 FEW029 SCT036 09/05 Q0999
12:50
V
9 °C 10 km+ - 220° 220° 14 kt METAR EGPE 251250Z 22014KT 9999 FEW024 SCT035 09/06 Q0998
12:20
V
9 °C 10 km+ - 210° 210° 14 kt METAR EGPE 251220Z 21014KT 9999 FEW020 SCT035 09/06 Q0998
11:50
V
8 °C 10 km+ - 200° 200° 13 kt METAR EGPE 251150Z 20013KT 140V220 9999 FEW015 SCT020CB SCT035 08/05 Q0997
11:20
V
8 °C 10 km+ 3,500 ft 200° 200° 17 kt METAR EGPE 251120Z 20017KT 9999 7000S -SHRA FEW015 BKN035 08/05 Q0997 RESHRA
10:50
V
8 °C 8 km 3,600 ft 210° 210° 15 kt METAR EGPE 251050Z 21015KT 8000 SHRA FEW015 BKN036 08/05 Q0996
10:20
V
7 °C 10 km+ - 190° 190° 17 - 27 kt METAR EGPE 251020Z 19017G27KT 150V220 9999 -SHRA FEW015 SCT039 07/04 Q0995 RESHRA
09:50
V
8 °C 10 km+ 3,900 ft 190° 190° 14 - 25 kt METAR EGPE 250950Z 19014G25KT 9999 -SHRA FEW015 BKN039 08/04 Q0996
09:20
V
8 °C 10 km+ - 210° 210° 11 kt METAR EGPE 250920Z 21011KT 9999 -SHRA FEW015 SCT028 08/03 Q0996
08:50
V
7 °C 10 km+ - 210° 210° 9 kt METAR EGPE 250850Z 21009KT 160V230 9999 FEW015 07/02 Q0996
08:20
V
6 °C 10 km+ - 180° 180° 6 kt METAR EGPE 250820Z 18006KT 9999 FEW020 06/02 Q0995
07:50
V
6 °C 10 km+ - 180° 180° 7 kt METAR EGPE 250750Z 18007KT 9999 FEW035 06/02 Q0995
07:20
V
4 °C 10 km+ - 190° 190° 7 kt METAR EGPE 250720Z 19007KT 9999 FEW035 04/02 Q0995
06:50
V
6 °C 10 km+ - 200° 200° 4 kt METAR EGPE 250650Z 20004KT 160V220 9999 FEW035 06/02 Q0994
06:20
V
7 °C 10 km+ - 190° 190° 11 kt METAR EGPE 250620Z 19011KT 9999 FEW035 07/03 Q0994
05:50
V
7 °C 10 km+ - 200° 200° 15 kt METAR EGPE 250550Z 20015KT 9999 NSC 07/02 Q0993
05:20
V
7 °C 10 km+ - 200° 200° 16 kt METAR EGPE 250520Z 20016KT 9999 NSC 07/03 Q0992
04:50
V
7 °C 10 km+ - 200° 200° 14 kt METAR EGPE 250450Z 20014KT 9999 NSC 07/03 Q0992
04:20
V
6 °C 10 km+ - 220° 220° 8 kt METAR EGPE 250420Z 22008KT 9999 NSC 06/03 Q0991
03:20
V
7 °C 10 km+ - 210° 210° 11 kt METAR EGPE 250320Z 21011KT 180V240 9999 NSC 07/04 Q0990
02:20
V
8 °C 10 km+ - 210° 210° 12 kt METAR EGPE 250220Z 21012KT 9999 NSC 08/04 Q0989
01:50
V
7 °C 10 km+ - 200° 200° 11 kt METAR EGPE 250150Z AUTO 20011KT 9999 FEW027/// SCT033/// 07/03 Q0988
01:20
V
8 °C 10 km+ - 200° 200° 19 - 33 kt METAR EGPE 250120Z AUTO 20019G33KT 9999 FEW028/// SCT036/// 08/03 Q0987
00:50
V
8 °C 10 km+ 3,700 ft 210° 210° 19 - 29 kt METAR EGPE 250050Z AUTO 21019G29KT 9999 -RA BKN037/// 08/03 Q0987
00:20
V
9 °C 10 km+ 4,600 ft 200° 200° 10 kt METAR EGPE 250020Z AUTO 20010KT 170V230 9999 BKN046/// 09/03 Q0986

November 24, 2022

Time Code Weather Temp. Visibility Ceiling Wind METAR/SPECI
23:50
V
8 °C 10 km+ 4,600 ft 170° 170° 6 kt METAR EGPE 242350Z AUTO 17006KT 120V210 9999 SCT036/// BKN046/// 08/03 Q0986
23:20
V
9 °C 10 km+ - 160° 160° 12 kt METAR EGPE 242320Z AUTO 16012KT 9999 NCD 09/03 Q0986
22:50
V
9 °C 10 km+ - 170° 170° 10 - 20 kt METAR EGPE 242250Z AUTO 17010G20KT 140V200 9999 NCD 09/03 Q0986
22:20
V
7 °C 10 km+ - Var Var 2 kt METAR EGPE 242220Z AUTO VRB02KT 9999 NCD 07/02 Q0985
21:50
V
6 °C 10 km+ - 130° 130° 6 kt METAR EGPE 242150Z AUTO 13006KT 9999 NCD 06/02 Q0985
21:20
V
6 °C 10 km+ - Var Var 7 kt METAR EGPE 242120Z VRB07KT 9999 FEW030 06/02 Q0986
20:50
V
8 °C 10 km+ - Var Var 6 kt METAR EGPE 242050Z VRB06KT 9999 FEW026 SCT036 08/03 Q0986
20:20
V
7 °C 10 km+ 3,300 ft 030° 030° 11 kt METAR EGPE 242020Z 03011KT 9999 FEW026 BKN033 07/03 Q0985
19:50
V
8 °C 10 km+ - 100° 100° 4 kt METAR EGPE 241950Z 10004KT 020V190 9999 FEW030 08/03 Q0985
19:20
V
8 °C 10 km+ - 250° 250° 3 kt METAR EGPE 241920Z 25003KT 210V330 9999 FEW030 08/04 Q0986
18:50
V
8 °C 10 km+ - 230° 230° 7 kt METAR EGPE 241850Z 23007KT 180V300 9999 FEW028 08/04 Q0986
18:20
V
8 °C 10 km+ - 220° 220° 4 kt METAR EGPE 241820Z 22004KT 140V260 9999 FEW028 08/04 Q0986
17:50
V
8 °C 10 km+ - 170° 170° 7 kt METAR EGPE 241750Z 17007KT 130V220 9999 FEW028 08/04 Q0986
17:20
V
10 °C 10 km+ - 210° 210° 4 kt METAR EGPE 241720Z 21004KT 150V310 9999 VCSH FEW026 SCT030 10/04 Q0986
16:50
V
9 °C 10 km+ 3,300 ft 270° 270° 6 kt METAR EGPE 241650Z 27006KT 230V290 9999 VCSH FEW028 BKN033 09/04 Q0986
16:20
V
9 °C 10 km+ 3,300 ft 330° 330° 5 kt METAR EGPE 241620Z 33005KT 250V050 9999 VCSH FEW028 BKN033 09/05 Q0985
15:50
V
10 °C 10 km+ - Var Var 6 kt METAR EGPE 241550Z VRB06KT 9999 VCSH FEW028 10/04 Q0985
15:20
V
9 °C 10 km+ - 120° 120° 12 kt METAR EGPE 241520Z 12012KT 9999 VCSH FEW025 09/04 Q0985
14:50
V
9 °C 10 km+ - 090° 090° 7 kt METAR EGPE 241450Z 09007KT 9999 VCSH FEW025 09/05 Q0986
14:20
V
9 °C 10 km+ - 120° 120° 14 kt METAR EGPE 241420Z 12014KT 9999 -RA FEW026 09/04 Q0986
13:50
V
9 °C 10 km+ - 100° 100° 10 kt METAR EGPE 241350Z 10010KT 070V130 9999 FEW028 09/04 Q0987
13:20
V
10 °C 10 km+ - 150° 150° 7 kt METAR EGPE 241320Z 15007KT 090V200 9999 FEW030 10/04 Q0987
12:50
V
9 °C 10 km+ - 050° 050° 3 kt METAR EGPE 241250Z 05003KT 010V080 9999 FEW030 09/04 Q0987
12:20
V
9 °C 10 km+ - 140° 140° 4 kt METAR EGPE 241220Z 14004KT 100V190 9999 FEW030 09/03 Q0988
11:50
V
8 °C 10 km+ - 190° 190° 8 kt METAR EGPE 241150Z 19008KT 160V230 9999 FEW030 08/03 Q0988
11:20
V
7 °C 10 km+ - Var Var 2 kt METAR EGPE 241120Z VRB02KT 9999 FEW030 07/03 Q0989
10:50
V
7 °C 10 km+ - 170° 170° 6 kt METAR EGPE 241050Z 17006KT 150V210 9999 FEW025 07/03 Q0989
10:20
V
8 °C 10 km+ - 190° 190° 11 kt METAR EGPE 241020Z 19011KT 9999 FEW025 08/03 Q0989
09:50
V
7 °C 10 km+ - 210° 210° 5 kt METAR EGPE 240950Z 21005KT 160V310 9999 FEW020 07/03 Q0989

We and third parties follow your internet behavior on our website with cookies. If you continue, we assume you agree with our cookie policy.